Nearby Weather Observations


KTIP - Rantoul, Illinois, USA
Distance from station: ENE 12mi, 19km
Updated: Thu, 21-Jun-2018 10:55am CDT
Light rain, Overcast
Light rain, Overcast
 Wind from S
Wind: S 6 mph , 9 km/h
Temperature: 72°F , 22°C
Dew Point: 72°F , 22°C
Humidity: 100%
Barometer: 29.76 inHg , 1007.8 hPa
Summary: Light rain
Clouds: Overcast
Visibility: 10 miles , 16 km
Cloud details: Overcast 600 ft
2018/06/21 15:55 KTIP 211555Z AUTO 18005KT 10SM -RA OVC006 22/22 A2976 RMK AO2 P0001 T02230222
KCMI - Champaign/Urbana, Illinois, USA
Distance from station: SSE 14mi, 22km
Updated: Thu, 21-Jun-2018 11:01am CDT
Rain, Mist, Overcast
Rain, Mist, Overcast
 Wind from SSE
Wind: SSE 7 mph , 11 km/h
Temperature: 70°F , 21°C
Dew Point: 70°F , 21°C
Humidity: 100%
Barometer: 29.76 inHg , 1007.8 hPa
Summary: Rain, Mist
Clouds: Overcast
Visibility: 4 miles , 6 km
Cloud details: Few Clouds 5500 ft
Mostly cloudy 8000 ft
Overcast 9500 ft
2018/06/21 16:01 KCMI 211601Z 16006KT 4SM RA BR FEW055 BKN080 OVC095 21/21 A2976 RMK AO2 P0001 T02110211
 
KBMI - Bloomington/Norm, Illinois, USA
Distance from station: WNW 34mi, 55km
Updated: Thu, 21-Jun-2018 10:56am CDT
Overcast
Overcast
 Wind from S
Wind: S 9 mph , 15 km/h
Temperature: 73°F , 23°C
Dew Point: 70°F , 21°C
Humidity: 89%
Barometer: 29.76 inHg , 1007.8 hPa
Clouds: Overcast
Visibility: 10 miles , 16 km
Cloud details: Mostly cloudy 1000 ft
Overcast 1800 ft
2018/06/21 15:56 KBMI 211556Z 19008KT 10SM BKN010 OVC018 23/21 A2976 RMK AO2 SLP088 T02330211
KDEC - Decatur, Illinois, USA
Distance from station: SW 37mi, 60km
Updated: Thu, 21-Jun-2018 10:54am CDT
Overcast
Overcast
 Wind from SSE
Wind: SSE 9 mph , 15 km/h
Temperature: 77°F , 25°C
Dew Point: 72°F , 22°C
Humidity: 83%
Barometer: 29.74 inHg , 1007.1 hPa
Clouds: Overcast
Visibility: 10 miles , 16 km
Cloud details: Partly cloudy 1400 ft
Mostly cloudy 1900 ft
Overcast 2600 ft
2018/06/21 15:54 KDEC 211554Z 16008KT 10SM SCT014 BKN019 OVC026 25/22 A2974 RMK AO2 RAE08 SLP065 P0001 T02500222
 
KDNV - Danville, Illinois, USA
Distance from station: E 40mi, 65km
Updated: Thu, 21-Jun-2018 10:55am CDT
Rain, Overcast
Rain, Overcast
 Wind from WSW
Wind: WSW 5 mph , 7 km/h
Temperature: 70°F , 21°C
Dew Point: 70°F , 21°C
Humidity: 100%
Barometer: 29.74 inHg , 1007.1 hPa
Summary: Rain
Clouds: Overcast
Visibility: 7 miles , 11 km
Cloud details: Partly cloudy 600 ft
Partly cloudy 2900 ft
Overcast 3500 ft
2018/06/21 15:55 KDNV 211555Z AUTO 25004KT 7SM RA SCT006 SCT029 OVC035 21/21 A2974 RMK AO2 P0010 T02100210
KAAA - Lincoln, Illinois, USA
Distance from station: W 52mi, 83km
Updated: Thu, 21-Jun-2018 10:55am CDT
Mostly cloudy
Mostly cloudy
 Wind from S
Wind: S 5 mph , 7 km/h
Temperature: 77°F , 25°C
Dew Point: 72°F , 22°C
Humidity: 83%
Barometer: 29.73 inHg , 1006.8 hPa
Clouds: Mostly cloudy
Visibility: 10 miles , 16 km
Cloud details: Mostly cloudy 1600 ft
2018/06/21 15:55 KAAA 211555Z AUTO 18004KT 10SM BKN016 25/22 A2973 RMK AO2 LTG DSNT SW T02520221
 
KMTO - Mattoon/Charlest, Illinois, USA
Distance from station: S 52mi, 84km
Updated: Thu, 21-Jun-2018 10:53am CDT
Overcast
Overcast
 Wind from SSW
Wind: SSW 5 mph , 7 km/h
Temperature: 73°F , 23°C
Dew Point: 72°F , 22°C
Humidity: 94%
Barometer: 29.75 inHg , 1007.5 hPa
Clouds: Overcast
Visibility: 10 miles , 16 km
Cloud details: Partly cloudy 1000 ft
Mostly cloudy 1800 ft
Overcast 2400 ft
2018/06/21 15:53 KMTO 211553Z AUTO 21004KT 10SM SCT010 BKN018 OVC024 23/22 A2975 RMK AO2 SLP068 T02330217
KSPI - Springfield, Illinois, USA
Distance from station: WSW 74mi, 120km
Updated: Thu, 21-Jun-2018 10:52am CDT
Clear
Clear
 Wind from SSE
Wind: SSE 6 mph , 9 km/h
Temperature: 81°F , 27°C
Heat Index: 85°F , 29°C
Dew Point: 72°F , 22°C
Humidity: 74%
Barometer: 29.72 inHg , 1006.4 hPa
Clouds: Clear
Visibility: 10 miles , 16 km
2018/06/21 15:52 KSPI 211552Z 16005KT 10SM CLR 27/22 A2972 RMK AO2 LTG DSNT W SLP060 T02670222
 
KLAF - Lafayette, Indiana, USA
Distance from station: E 76mi, 123km
Updated: Thu, 21-Jun-2018 10:54am CDT
Light rain, Mist, Overcast
Light rain, Mist, Overcast
 Wind from calm
Wind: Calm
Temperature: 72°F , 22°C
Dew Point: 72°F , 22°C
Humidity: 100%
Barometer: 29.76 inHg , 1007.8 hPa
Summary: Light rain, Mist
Clouds: Overcast
Visibility: 3 miles , 5 km
Cloud details: Partly cloudy 500 ft
Overcast 1200 ft
2018/06/21 15:54 KLAF 211554Z 00000KT 3SM -RA BR SCT005 OVC012 22/22 A2976 RMK AO2 RAE03B16 SLP072 P0007 T02220217
KPIA - Peoria, Illinois, USA
Distance from station: WNW 76mi, 123km
Updated: Thu, 21-Jun-2018 10:54am CDT
Overcast
Overcast
 Wind from calm
Wind: Calm
Temperature: 75°F , 24°C
Dew Point: 70°F , 21°C
Humidity: 83%
Barometer: 29.72 inHg , 1006.4 hPa
Clouds: Overcast
Visibility: 10 miles , 16 km
Cloud details: Overcast 2100 ft
2018/06/21 15:54 KPIA 211554Z 00000KT 10SM OVC021 24/21 A2972 RMK AO2 SLP060 T02440206
 
KHUF - Terre Haute, Indiana, USA
Distance from station: SE 77mi, 124km
Updated: Thu, 21-Jun-2018 10:53am CDT
Overcast
Overcast
 Wind from SW
Wind: SW 6 mph , 9 km/h
Temperature: 73°F , 23°C
Dew Point: 70°F , 21°C
Humidity: 89%
Barometer: 29.76 inHg , 1007.8 hPa
Clouds: Overcast
Visibility: 10 miles , 16 km
Cloud details: Mostly cloudy 1400 ft
Overcast 2100 ft
2018/06/21 15:53 KHUF 211553Z 22005KT 10SM BKN014 OVC021 23/21 A2976 RMK AO2 SLP074 T02330211
K1H2 - Effingham, Illinois, USA
Distance from station: S 80mi, 129km
Updated: Thu, 21-Jun-2018 10:55am CDT
Partly cloudy
Partly cloudy
 Wind from S
Wind: S 8 mph , 13 km/h
Temperature: 79°F , 26°C
Dew Point: 73°F , 23°C
Humidity: 84%
Barometer: 29.77 inHg , 1008.1 hPa
Clouds: Partly cloudy
Visibility: 10 miles , 16 km
Cloud details: Partly cloudy 2000 ft
Partly cloudy 2500 ft
2018/06/21 15:55 K1H2 211555Z AUTO 18007KT 10SM SCT020 SCT025 26/23 A2977 RMK AO2 T02610227
 
KIND - Indianapolis, Indiana, USA
Distance from station: ESE 117mi, 133km
Updated: Thu, 21-Jun-2018 10:54am CDT
Light rain, Mist, Overcast
Light rain, Mist, Overcast
 Wind from SSW
Wind: SSW 8 mph , 13 km/h
Temperature: 72°F , 22°C
Dew Point: 70°F , 21°C
Humidity: 94%
Barometer: 29.78 inHg , 1008.5 hPa
Summary: Light rain, Mist
Clouds: Overcast
Visibility: 5 miles , 8 km
Cloud details: Mostly cloudy 900 ft
Mostly cloudy 5500 ft
Overcast 9500 ft
2018/06/21 15:54 KIND 211554Z 21007KT 5SM -RA BR BKN009 BKN055 OVC095 22/21 A2978 RMK AO2 SLP077 P0005 T02170211
KORD - Chicago O'hare, Illinois, USA
Distance from station: N 126mi, 203km
Updated: Thu, 21-Jun-2018 10:51am CDT
Light rain, Mist, Overcast
Light rain, Mist, Overcast
 Wind from E
Wind: E 15 mph , 24 km/h
Temperature: 66°F , 19°C
Dew Point: 63°F , 17°C
Humidity: 88%
Barometer: 29.78 inHg , 1008.5 hPa
Summary: Light rain, Mist
Clouds: Overcast
Visibility: 3 miles , 5 km
Cloud details: Overcast 500 ft
2018/06/21 15:51 KORD 211551Z 08013KT 3SM -RA BR OVC005 19/17 A2978 RMK AO2 SLP081 P0016 T01890172
 
KSTL - St. Louis, Missouri, USA
Distance from station: SW 150mi, 185km
Updated: Thu, 21-Jun-2018 10:58am CDT
Mostly cloudy
Mostly cloudy
 Wind from W
Wind: W 9 mph , 15 km/h, Gust: 18 mph , 30 km/h
Temperature: 79°F , 26°C
Dew Point: 68°F , 20°C
Humidity: 70%
Barometer: 29.76 inHg , 1007.8 hPa
Clouds: Mostly cloudy
Visibility: 10 miles , 16 km
Cloud details: Few Clouds 1900 ft
Mostly cloudy 3400 ft
Mostly cloudy 11000 ft
Mostly cloudy 25000 ft
2018/06/21 15:58 KSTL 211558Z 26008G16KT 10SM FEW019 BKN034 BKN110 BKN250 26/20 A2976 RMK AO2 LTG DSNT NE AND E T02560200